Skip Navigation Links
NOAA logo - Click to go to the NOAA homepage
NOAA's National Weather Service
Alaska Aviation Weather Unit
  NWS logo - Click to go to the NWS homepage
Left Navbar Graphic     23 AKDT = 07 GMT

   
NOAA is celebrating 200 years of science, service, and stewardship. Visit the NOAA 200th celebration Web site to learn more.
USA.gov is the U.S. Government's official Web portal to all Federal, state and local government Web resources and services.
Facebook
NWS on Facebook

Important Change Regarding the AAWU Web Presence

 

Over the last several months, the AAWU has been working to navigate its webpages to a nationally supported server. Security, as well as other needs, have necessitated the change.  In the process, we have made an effort to enhance the functionality of our website, as well as some of our products. As of June 20, 2017, aawu.arh.noaa.gov will be discontinued. The new AAWU web address is weather.gov/aawu. It is now live and will run in-parallel with the old site until it is discontinued. Please send any feedback or questions regarding the new webpages to nws.ar.aawu.webauthors@noaa.gov.  Thank you for your patience during this time of transition.
AAWU Home :: Display TAF Add Bookmark
METAR PAPM 240156Z AUTO 13011KT 10SM -RA FEW016 BKN021 OVC046 07/05
     A2978 RMK AO2 SLP088 P0001 T00670050=

SPECI PAPM 240205Z AUTO 13011KT 10SM -RA FEW016 BKN039 OVC046 07/05
     A2978 RMK AO2 P0000=

METAR PAPM 240256Z AUTO 13011KT 10SM BKN014 BKN020 OVC036 07/05 A2975
     RMK AO2 RAE52 SLP078 P0001 60004 T00670050 58026=

METAR PAPM 240356Z AUTO 15016KT 10SM -RA OVC010 06/05 A2974 RMK AO2
     RAB11 CIG 006V013 SLP073 P0001 T00610050=

SPECI PAPM 240404Z AUTO 15018KT 10SM -RA OVC008 06/05 A2973 RMK AO2 CIG
     006V011 P0000=

METAR PAPM 240456Z AUTO 16018KT 3SM -RA BR OVC006 06/05 A2972 RMK AO2
     CIG 004V010 SLP066 P0001 T00560050=

SPECI PAPM 240508Z AUTO 16019KT 2SM -RA BR OVC006 06/05 A2972 RMK AO2
     CIG 004V009 P0000=

SPECI PAPM 240520Z AUTO 16018KT 5SM -RA BR OVC006 06/04 A2972 RMK AO2
     CIG 004V009 P0000=

METAR PAPM 240556Z AUTO 16016KT 10SM OVC006 06/04 A2971 RMK AO2
 RAE43 SLP062 P0000 60006 T00560044 10067 20056 56016=

SPECI PAPM 240646Z AUTO 16017KT 10SM -RA OVC004 05/04 A2970 RMK AO2
     RAB41 P0000=


NOAA's National Weather Service
Alaska Aviation Weather Unit
6930 Sand Lake Road
Anchorage, AK 99502-1845
Disclaimer
Credits
Glossary
Privacy Policy
About Us
Career Opportunities
Contact AAWU Internet Services Site last modified: April, 17th 2012